<?xml version="1.0" encoding="UTF-8" standalone="no" ?>
<gpx xmlns="http://www.topografix.com/GPX/1/1" xmlns:xsi="http://www.w3.org/2001/XMLSchema-instance" xsi:schemaLocation="http://www.topografix.com/GPX/1/1 http://www.topografix.com/GPX/1/1/gpx.xsd" version="1.1" creator="VisuGPX - https://www.visugpx.com">
  <metadata>
    <name>Trail des Gets 33 kms</name>
    <desc><![CDATA[Trail des Gets - 33 kms 
1ere édition]]></desc>
  </metadata>
  <trk>
    <name><![CDATA[9370967-grand]]></name>
    <trkseg>
      <trkpt lat="46.15905" lon="6.67012">
        <ele>1166</ele>
        <time>2018-12-09T12:27:30Z</time>
      </trkpt>
      <trkpt lat="46.15976" lon="6.67083">
        <ele>1167</ele>
        <time>2018-12-09T12:28:30Z</time>
      </trkpt>
      <trkpt lat="46.15983" lon="6.67157">
        <ele>1168</ele>
        <time>2018-12-09T12:29:30Z</time>
      </trkpt>
      <trkpt lat="46.16017" lon="6.67234">
        <ele>1171</ele>
        <time>2018-12-09T12:30:30Z</time>
      </trkpt>
      <trkpt lat="46.161" lon="6.67223">
        <ele>1167</ele>
        <time>2018-12-09T12:31:30Z</time>
      </trkpt>
      <trkpt lat="46.1639" lon="6.67458">
        <ele>1157</ele>
        <time>2018-12-09T12:32:30Z</time>
      </trkpt>
      <trkpt lat="46.16663" lon="6.67659">
        <ele>1150</ele>
        <time>2018-12-09T12:33:30Z</time>
      </trkpt>
      <trkpt lat="46.16743" lon="6.67684">
        <ele>1144</ele>
        <time>2018-12-09T12:34:30Z</time>
      </trkpt>
      <trkpt lat="46.16817" lon="6.67662">
        <ele>1130</ele>
        <time>2018-12-09T12:35:30Z</time>
      </trkpt>
      <trkpt lat="46.17279" lon="6.67801">
        <ele>1136</ele>
        <time>2018-12-09T12:36:30Z</time>
      </trkpt>
      <trkpt lat="46.17648" lon="6.67998">
        <ele>1109</ele>
        <time>2018-12-09T12:37:30Z</time>
      </trkpt>
      <trkpt lat="46.17833" lon="6.68004">
        <ele>1102</ele>
        <time>2018-12-09T12:38:30Z</time>
      </trkpt>
      <trkpt lat="46.18602" lon="6.67756">
        <ele>1057</ele>
        <time>2018-12-09T12:39:30Z</time>
      </trkpt>
      <trkpt lat="46.18499" lon="6.67643">
        <ele>1082</ele>
        <time>2018-12-09T12:40:30Z</time>
      </trkpt>
      <trkpt lat="46.18364" lon="6.67509">
        <ele>1132</ele>
        <time>2018-12-09T12:41:30Z</time>
      </trkpt>
      <trkpt lat="46.18259" lon="6.67356">
        <ele>1187</ele>
        <time>2018-12-09T12:42:30Z</time>
      </trkpt>
      <trkpt lat="46.18202" lon="6.67385">
        <ele>1212</ele>
        <time>2018-12-09T12:43:30Z</time>
      </trkpt>
      <trkpt lat="46.18137" lon="6.6726">
        <ele>1245</ele>
        <time>2018-12-09T12:44:30Z</time>
      </trkpt>
      <trkpt lat="46.17956" lon="6.671">
        <ele>1293</ele>
        <time>2018-12-09T12:45:30Z</time>
      </trkpt>
      <trkpt lat="46.17933" lon="6.6711">
        <ele>1301</ele>
        <time>2018-12-09T12:46:30Z</time>
      </trkpt>
      <trkpt lat="46.17929" lon="6.67217">
        <ele>1319</ele>
        <time>2018-12-09T12:47:30Z</time>
      </trkpt>
      <trkpt lat="46.17884" lon="6.67195">
        <ele>1322</ele>
        <time>2018-12-09T12:48:30Z</time>
      </trkpt>
      <trkpt lat="46.17849" lon="6.67231">
        <ele>1328</ele>
        <time>2018-12-09T12:49:30Z</time>
      </trkpt>
      <trkpt lat="46.17825" lon="6.67193">
        <ele>1329</ele>
        <time>2018-12-09T12:50:30Z</time>
      </trkpt>
      <trkpt lat="46.17817" lon="6.67243">
        <ele>1332</ele>
        <time>2018-12-09T12:51:30Z</time>
      </trkpt>
      <trkpt lat="46.17791" lon="6.67173">
        <ele>1338</ele>
        <time>2018-12-09T12:52:30Z</time>
      </trkpt>
      <trkpt lat="46.17762" lon="6.67152">
        <ele>1344</ele>
        <time>2018-12-09T12:53:30Z</time>
      </trkpt>
      <trkpt lat="46.17743" lon="6.67165">
        <ele>1350</ele>
        <time>2018-12-09T12:54:30Z</time>
      </trkpt>
      <trkpt lat="46.17727" lon="6.67127">
        <ele>1353</ele>
        <time>2018-12-09T12:55:30Z</time>
      </trkpt>
      <trkpt lat="46.17701" lon="6.67129">
        <ele>1361</ele>
        <time>2018-12-09T12:56:30Z</time>
      </trkpt>
      <trkpt lat="46.17703" lon="6.67079">
        <ele>1366</ele>
        <time>2018-12-09T12:57:30Z</time>
      </trkpt>
      <trkpt lat="46.17684" lon="6.67075">
        <ele>1375</ele>
        <time>2018-12-09T12:58:30Z</time>
      </trkpt>
      <trkpt lat="46.17671" lon="6.67091">
        <ele>1381</ele>
        <time>2018-12-09T12:59:30Z</time>
      </trkpt>
      <trkpt lat="46.17632" lon="6.6705">
        <ele>1393</ele>
        <time>2018-12-09T13:00:30Z</time>
      </trkpt>
      <trkpt lat="46.17526" lon="6.67034">
        <ele>1413</ele>
        <time>2018-12-09T13:01:30Z</time>
      </trkpt>
      <trkpt lat="46.17285" lon="6.66879">
        <ele>1443</ele>
        <time>2018-12-09T13:02:30Z</time>
      </trkpt>
      <trkpt lat="46.1724" lon="6.6685">
        <ele>1444</ele>
        <time>2018-12-09T13:03:30Z</time>
      </trkpt>
      <trkpt lat="46.171" lon="6.667">
        <ele>1472</ele>
        <time>2018-12-09T13:04:30Z</time>
      </trkpt>
      <trkpt lat="46.16989" lon="6.66504">
        <ele>1487</ele>
        <time>2018-12-09T13:05:30Z</time>
      </trkpt>
      <trkpt lat="46.17014" lon="6.66411">
        <ele>1482</ele>
        <time>2018-12-09T13:06:30Z</time>
      </trkpt>
      <trkpt lat="46.16889" lon="6.66012">
        <ele>1544</ele>
        <time>2018-12-09T13:07:30Z</time>
      </trkpt>
      <trkpt lat="46.17118" lon="6.65141">
        <ele>1591</ele>
        <time>2018-12-09T13:08:30Z</time>
      </trkpt>
      <trkpt lat="46.16907" lon="6.65149">
        <ele>1734</ele>
        <time>2018-12-09T13:09:30Z</time>
      </trkpt>
      <trkpt lat="46.16925" lon="6.65081">
        <ele>1743</ele>
        <time>2018-12-09T13:10:30Z</time>
      </trkpt>
      <trkpt lat="46.16848" lon="6.64995">
        <ele>1771</ele>
        <time>2018-12-09T13:11:30Z</time>
      </trkpt>
      <trkpt lat="46.16886" lon="6.64952">
        <ele>1777</ele>
        <time>2018-12-09T13:12:30Z</time>
      </trkpt>
      <trkpt lat="46.16862" lon="6.64743">
        <ele>1806</ele>
        <time>2018-12-09T13:13:30Z</time>
      </trkpt>
      <trkpt lat="46.1631" lon="6.64164">
        <ele>1701</ele>
        <time>2018-12-09T13:14:30Z</time>
      </trkpt>
      <trkpt lat="46.16496" lon="6.6375">
        <ele>1542</ele>
        <time>2018-12-09T13:15:30Z</time>
      </trkpt>
      <trkpt lat="46.16715" lon="6.63483">
        <ele>1517</ele>
        <time>2018-12-09T13:16:30Z</time>
      </trkpt>
      <trkpt lat="46.17052" lon="6.63722">
        <ele>1488</ele>
        <time>2018-12-09T13:17:30Z</time>
      </trkpt>
      <trkpt lat="46.173" lon="6.63324">
        <ele>1448</ele>
        <time>2018-12-09T13:18:30Z</time>
      </trkpt>
      <trkpt lat="46.16876" lon="6.63087">
        <ele>1403</ele>
        <time>2018-12-09T13:19:30Z</time>
      </trkpt>
      <trkpt lat="46.16614" lon="6.62845">
        <ele>1380</ele>
        <time>2018-12-09T13:20:30Z</time>
      </trkpt>
      <trkpt lat="46.16556" lon="6.62794">
        <ele>1371</ele>
        <time>2018-12-09T13:21:30Z</time>
      </trkpt>
      <trkpt lat="46.16414" lon="6.62492">
        <ele>1321</ele>
        <time>2018-12-09T13:22:30Z</time>
      </trkpt>
      <trkpt lat="46.16404" lon="6.62398">
        <ele>1308</ele>
        <time>2018-12-09T13:23:30Z</time>
      </trkpt>
      <trkpt lat="46.16429" lon="6.62342">
        <ele>1301</ele>
        <time>2018-12-09T13:24:30Z</time>
      </trkpt>
      <trkpt lat="46.16365" lon="6.62344">
        <ele>1290</ele>
        <time>2018-12-09T13:25:30Z</time>
      </trkpt>
      <trkpt lat="46.16425" lon="6.62268">
        <ele>1279</ele>
        <time>2018-12-09T13:26:30Z</time>
      </trkpt>
      <trkpt lat="46.16315" lon="6.62227">
        <ele>1259</ele>
        <time>2018-12-09T13:27:30Z</time>
      </trkpt>
      <trkpt lat="46.16414" lon="6.62143">
        <ele>1245</ele>
        <time>2018-12-09T13:28:30Z</time>
      </trkpt>
      <trkpt lat="46.16391" lon="6.62125">
        <ele>1241</ele>
        <time>2018-12-09T13:29:30Z</time>
      </trkpt>
      <trkpt lat="46.16353" lon="6.62059">
        <ele>1227</ele>
        <time>2018-12-09T13:30:30Z</time>
      </trkpt>
      <trkpt lat="46.16301" lon="6.62066">
        <ele>1227</ele>
        <time>2018-12-09T13:31:30Z</time>
      </trkpt>
      <trkpt lat="46.16257" lon="6.61934">
        <ele>1213</ele>
        <time>2018-12-09T13:32:30Z</time>
      </trkpt>
      <trkpt lat="46.16202" lon="6.61877">
        <ele>1212</ele>
        <time>2018-12-09T13:33:30Z</time>
      </trkpt>
      <trkpt lat="46.15934" lon="6.61837">
        <ele>1203</ele>
        <time>2018-12-09T13:34:30Z</time>
      </trkpt>
      <trkpt lat="46.16043" lon="6.61691">
        <ele>1251</ele>
        <time>2018-12-09T13:35:30Z</time>
      </trkpt>
      <trkpt lat="46.16162" lon="6.61655">
        <ele>1254</ele>
        <time>2018-12-09T13:36:30Z</time>
      </trkpt>
      <trkpt lat="46.16227" lon="6.61696">
        <ele>1254</ele>
        <time>2018-12-09T13:37:30Z</time>
      </trkpt>
      <trkpt lat="46.16231" lon="6.61635">
        <ele>1273</ele>
        <time>2018-12-09T13:38:30Z</time>
      </trkpt>
      <trkpt lat="46.16289" lon="6.6161">
        <ele>1289</ele>
        <time>2018-12-09T13:39:30Z</time>
      </trkpt>
      <trkpt lat="46.16213" lon="6.61472">
        <ele>1331</ele>
        <time>2018-12-09T13:40:30Z</time>
      </trkpt>
      <trkpt lat="46.1627" lon="6.6138">
        <ele>1372</ele>
        <time>2018-12-09T13:41:30Z</time>
      </trkpt>
      <trkpt lat="46.16188" lon="6.6128">
        <ele>1401</ele>
        <time>2018-12-09T13:42:30Z</time>
      </trkpt>
      <trkpt lat="46.16194" lon="6.61171">
        <ele>1442</ele>
        <time>2018-12-09T13:43:30Z</time>
      </trkpt>
      <trkpt lat="46.16167" lon="6.61107">
        <ele>1453</ele>
        <time>2018-12-09T13:44:30Z</time>
      </trkpt>
      <trkpt lat="46.16095" lon="6.60961">
        <ele>1464</ele>
        <time>2018-12-09T13:45:30Z</time>
      </trkpt>
      <trkpt lat="46.15983" lon="6.6091">
        <ele>1481</ele>
        <time>2018-12-09T13:46:30Z</time>
      </trkpt>
      <trkpt lat="46.15992" lon="6.60813">
        <ele>1495</ele>
        <time>2018-12-09T13:47:30Z</time>
      </trkpt>
      <trkpt lat="46.16148" lon="6.60688">
        <ele>1521</ele>
        <time>2018-12-09T13:48:30Z</time>
      </trkpt>
      <trkpt lat="46.16201" lon="6.60739">
        <ele>1523</ele>
        <time>2018-12-09T13:49:30Z</time>
      </trkpt>
      <trkpt lat="46.16247" lon="6.60729">
        <ele>1533</ele>
        <time>2018-12-09T13:50:30Z</time>
      </trkpt>
      <trkpt lat="46.16238" lon="6.60681">
        <ele>1538</ele>
        <time>2018-12-09T13:51:30Z</time>
      </trkpt>
      <trkpt lat="46.16268" lon="6.60653">
        <ele>1548</ele>
        <time>2018-12-09T13:52:30Z</time>
      </trkpt>
      <trkpt lat="46.16245" lon="6.60602">
        <ele>1558</ele>
        <time>2018-12-09T13:53:30Z</time>
      </trkpt>
      <trkpt lat="46.16186" lon="6.60497">
        <ele>1567</ele>
        <time>2018-12-09T13:54:30Z</time>
      </trkpt>
      <trkpt lat="46.16098" lon="6.6042">
        <ele>1583</ele>
        <time>2018-12-09T13:55:30Z</time>
      </trkpt>
      <trkpt lat="46.16026" lon="6.60387">
        <ele>1591</ele>
        <time>2018-12-09T13:56:30Z</time>
      </trkpt>
      <trkpt lat="46.15911" lon="6.60226">
        <ele>1581</ele>
        <time>2018-12-09T13:57:30Z</time>
      </trkpt>
      <trkpt lat="46.15875" lon="6.60101">
        <ele>1543</ele>
        <time>2018-12-09T13:58:30Z</time>
      </trkpt>
      <trkpt lat="46.15798" lon="6.59953">
        <ele>1473</ele>
        <time>2018-12-09T13:59:30Z</time>
      </trkpt>
      <trkpt lat="46.15732" lon="6.59412">
        <ele>1304</ele>
        <time>2018-12-09T14:00:30Z</time>
      </trkpt>
      <trkpt lat="46.15941" lon="6.59094">
        <ele>1337</ele>
        <time>2018-12-09T14:01:30Z</time>
      </trkpt>
      <trkpt lat="46.16091" lon="6.58917">
        <ele>1344</ele>
        <time>2018-12-09T14:02:30Z</time>
      </trkpt>
      <trkpt lat="46.16262" lon="6.58869">
        <ele>1381</ele>
        <time>2018-12-09T14:03:30Z</time>
      </trkpt>
      <trkpt lat="46.16512" lon="6.58849">
        <ele>1403</ele>
        <time>2018-12-09T14:04:30Z</time>
      </trkpt>
      <trkpt lat="46.16618" lon="6.58764">
        <ele>1423</ele>
        <time>2018-12-09T14:05:30Z</time>
      </trkpt>
      <trkpt lat="46.1666" lon="6.58627">
        <ele>1437</ele>
        <time>2018-12-09T14:06:30Z</time>
      </trkpt>
      <trkpt lat="46.16756" lon="6.58606">
        <ele>1452</ele>
        <time>2018-12-09T14:07:30Z</time>
      </trkpt>
      <trkpt lat="46.16672" lon="6.58412">
        <ele>1491</ele>
        <time>2018-12-09T14:08:30Z</time>
      </trkpt>
      <trkpt lat="46.16559" lon="6.58351">
        <ele>1496</ele>
        <time>2018-12-09T14:09:30Z</time>
      </trkpt>
      <trkpt lat="46.16501" lon="6.58147">
        <ele>1510</ele>
        <time>2018-12-09T14:10:30Z</time>
      </trkpt>
      <trkpt lat="46.16492" lon="6.58027">
        <ele>1520</ele>
        <time>2018-12-09T14:11:30Z</time>
      </trkpt>
      <trkpt lat="46.16528" lon="6.57968">
        <ele>1530</ele>
        <time>2018-12-09T14:12:30Z</time>
      </trkpt>
      <trkpt lat="46.16459" lon="6.57774">
        <ele>1554</ele>
        <time>2018-12-09T14:13:30Z</time>
      </trkpt>
      <trkpt lat="46.16391" lon="6.57751">
        <ele>1555</ele>
        <time>2018-12-09T14:14:30Z</time>
      </trkpt>
      <trkpt lat="46.16333" lon="6.57649">
        <ele>1565</ele>
        <time>2018-12-09T14:15:30Z</time>
      </trkpt>
      <trkpt lat="46.16303" lon="6.57432">
        <ele>1566</ele>
        <time>2018-12-09T14:16:30Z</time>
      </trkpt>
      <trkpt lat="46.16218" lon="6.57246">
        <ele>1554</ele>
        <time>2018-12-09T14:17:30Z</time>
      </trkpt>
      <trkpt lat="46.16255" lon="6.57185">
        <ele>1549</ele>
        <time>2018-12-09T14:18:30Z</time>
      </trkpt>
      <trkpt lat="46.16453" lon="6.5758">
        <ele>1580</ele>
        <time>2018-12-09T14:19:30Z</time>
      </trkpt>
      <trkpt lat="46.16512" lon="6.57746">
        <ele>1564</ele>
        <time>2018-12-09T14:20:30Z</time>
      </trkpt>
      <trkpt lat="46.16759" lon="6.58022">
        <ele>1581</ele>
        <time>2018-12-09T14:21:30Z</time>
      </trkpt>
      <trkpt lat="46.16907" lon="6.58157">
        <ele>1584</ele>
        <time>2018-12-09T14:22:30Z</time>
      </trkpt>
      <trkpt lat="46.16992" lon="6.58236">
        <ele>1580</ele>
        <time>2018-12-09T14:23:30Z</time>
      </trkpt>
      <trkpt lat="46.17102" lon="6.58226">
        <ele>1603</ele>
        <time>2018-12-09T14:24:30Z</time>
      </trkpt>
      <trkpt lat="46.17181" lon="6.58226">
        <ele>1622</ele>
        <time>2018-12-09T14:25:30Z</time>
      </trkpt>
      <trkpt lat="46.17169" lon="6.58325">
        <ele>1623</ele>
        <time>2018-12-09T14:26:30Z</time>
      </trkpt>
      <trkpt lat="46.17294" lon="6.5832">
        <ele>1652</ele>
        <time>2018-12-09T14:27:30Z</time>
      </trkpt>
      <trkpt lat="46.17386" lon="6.58412">
        <ele>1680</ele>
        <time>2018-12-09T14:28:30Z</time>
      </trkpt>
      <trkpt lat="46.17468" lon="6.58331">
        <ele>1717</ele>
        <time>2018-12-09T14:29:30Z</time>
      </trkpt>
      <trkpt lat="46.18091" lon="6.58948">
        <ele>1843</ele>
        <time>2018-12-09T14:30:30Z</time>
      </trkpt>
      <trkpt lat="46.17999" lon="6.59224">
        <ele>1761</ele>
        <time>2018-12-09T14:31:30Z</time>
      </trkpt>
      <trkpt lat="46.17934" lon="6.59264">
        <ele>1740</ele>
        <time>2018-12-09T14:32:30Z</time>
      </trkpt>
      <trkpt lat="46.17952" lon="6.59326">
        <ele>1732</ele>
        <time>2018-12-09T14:33:30Z</time>
      </trkpt>
      <trkpt lat="46.17832" lon="6.59581">
        <ele>1679</ele>
        <time>2018-12-09T14:34:30Z</time>
      </trkpt>
      <trkpt lat="46.17853" lon="6.59782">
        <ele>1645</ele>
        <time>2018-12-09T14:35:30Z</time>
      </trkpt>
      <trkpt lat="46.17851" lon="6.59905">
        <ele>1613</ele>
        <time>2018-12-09T14:36:30Z</time>
      </trkpt>
      <trkpt lat="46.17818" lon="6.59933">
        <ele>1600</ele>
        <time>2018-12-09T14:37:30Z</time>
      </trkpt>
      <trkpt lat="46.17818" lon="6.60025">
        <ele>1570</ele>
        <time>2018-12-09T14:38:30Z</time>
      </trkpt>
      <trkpt lat="46.17717" lon="6.60004">
        <ele>1552</ele>
        <time>2018-12-09T14:39:30Z</time>
      </trkpt>
      <trkpt lat="46.17722" lon="6.60107">
        <ele>1528</ele>
        <time>2018-12-09T14:40:30Z</time>
      </trkpt>
      <trkpt lat="46.17768" lon="6.60323">
        <ele>1480</ele>
        <time>2018-12-09T14:41:30Z</time>
      </trkpt>
      <trkpt lat="46.1777" lon="6.604">
        <ele>1472</ele>
        <time>2018-12-09T14:42:30Z</time>
      </trkpt>
      <trkpt lat="46.17704" lon="6.60423">
        <ele>1458</ele>
        <time>2018-12-09T14:43:30Z</time>
      </trkpt>
      <trkpt lat="46.17694" lon="6.60581">
        <ele>1438</ele>
        <time>2018-12-09T14:44:30Z</time>
      </trkpt>
      <trkpt lat="46.17579" lon="6.60512">
        <ele>1426</ele>
        <time>2018-12-09T14:45:30Z</time>
      </trkpt>
      <trkpt lat="46.17484" lon="6.60727">
        <ele>1404</ele>
        <time>2018-12-09T14:46:30Z</time>
      </trkpt>
      <trkpt lat="46.17378" lon="6.61127">
        <ele>1373</ele>
        <time>2018-12-09T14:47:30Z</time>
      </trkpt>
      <trkpt lat="46.1739" lon="6.6128">
        <ele>1363</ele>
        <time>2018-12-09T14:48:30Z</time>
      </trkpt>
      <trkpt lat="46.17386" lon="6.61543">
        <ele>1370</ele>
        <time>2018-12-09T14:49:30Z</time>
      </trkpt>
      <trkpt lat="46.17355" lon="6.6164">
        <ele>1361</ele>
        <time>2018-12-09T14:50:30Z</time>
      </trkpt>
      <trkpt lat="46.17289" lon="6.62018">
        <ele>1342</ele>
        <time>2018-12-09T14:51:30Z</time>
      </trkpt>
      <trkpt lat="46.17146" lon="6.62168">
        <ele>1348</ele>
        <time>2018-12-09T14:52:30Z</time>
      </trkpt>
      <trkpt lat="46.16733" lon="6.62383">
        <ele>1394</ele>
        <time>2018-12-09T14:53:30Z</time>
      </trkpt>
      <trkpt lat="46.16593" lon="6.62589">
        <ele>1401</ele>
        <time>2018-12-09T14:54:30Z</time>
      </trkpt>
      <trkpt lat="46.16575" lon="6.62709">
        <ele>1390</ele>
        <time>2018-12-09T14:55:30Z</time>
      </trkpt>
      <trkpt lat="46.1669" lon="6.6287">
        <ele>1400</ele>
        <time>2018-12-09T14:56:30Z</time>
      </trkpt>
      <trkpt lat="46.16862" lon="6.63067">
        <ele>1405</ele>
        <time>2018-12-09T14:57:30Z</time>
      </trkpt>
      <trkpt lat="46.17275" lon="6.63322">
        <ele>1442</ele>
        <time>2018-12-09T14:58:30Z</time>
      </trkpt>
      <trkpt lat="46.17116" lon="6.63472">
        <ele>1441</ele>
        <time>2018-12-09T14:59:30Z</time>
      </trkpt>
      <trkpt lat="46.17079" lon="6.63687">
        <ele>1476</ele>
        <time>2018-12-09T15:00:30Z</time>
      </trkpt>
      <trkpt lat="46.16748" lon="6.63447">
        <ele>1501</ele>
        <time>2018-12-09T15:01:30Z</time>
      </trkpt>
      <trkpt lat="46.16671" lon="6.63488">
        <ele>1520</ele>
        <time>2018-12-09T15:02:30Z</time>
      </trkpt>
      <trkpt lat="46.16494" lon="6.6372">
        <ele>1533</ele>
        <time>2018-12-09T15:03:30Z</time>
      </trkpt>
      <trkpt lat="46.16338" lon="6.63391">
        <ele>1509</ele>
        <time>2018-12-09T15:04:30Z</time>
      </trkpt>
      <trkpt lat="46.16215" lon="6.63424">
        <ele>1505</ele>
        <time>2018-12-09T15:05:30Z</time>
      </trkpt>
      <trkpt lat="46.16135" lon="6.63518">
        <ele>1510</ele>
        <time>2018-12-09T15:06:30Z</time>
      </trkpt>
      <trkpt lat="46.16015" lon="6.63508">
        <ele>1504</ele>
        <time>2018-12-09T15:07:30Z</time>
      </trkpt>
      <trkpt lat="46.1596" lon="6.63352">
        <ele>1490</ele>
        <time>2018-12-09T15:08:30Z</time>
      </trkpt>
      <trkpt lat="46.15978" lon="6.63299">
        <ele>1475</ele>
        <time>2018-12-09T15:09:30Z</time>
      </trkpt>
      <trkpt lat="46.15872" lon="6.63064">
        <ele>1487</ele>
        <time>2018-12-09T15:10:30Z</time>
      </trkpt>
      <trkpt lat="46.15366" lon="6.63061">
        <ele>1499</ele>
        <time>2018-12-09T15:11:30Z</time>
      </trkpt>
      <trkpt lat="46.15281" lon="6.63077">
        <ele>1495</ele>
        <time>2018-12-09T15:12:30Z</time>
      </trkpt>
      <trkpt lat="46.15281" lon="6.63156">
        <ele>1497</ele>
        <time>2018-12-09T15:13:30Z</time>
      </trkpt>
      <trkpt lat="46.15234" lon="6.63317">
        <ele>1487</ele>
        <time>2018-12-09T15:14:30Z</time>
      </trkpt>
      <trkpt lat="46.15296" lon="6.63546">
        <ele>1474</ele>
        <time>2018-12-09T15:15:30Z</time>
      </trkpt>
      <trkpt lat="46.15384" lon="6.63847">
        <ele>1477</ele>
        <time>2018-12-09T15:16:30Z</time>
      </trkpt>
      <trkpt lat="46.1552" lon="6.64184">
        <ele>1482</ele>
        <time>2018-12-09T15:17:30Z</time>
      </trkpt>
      <trkpt lat="46.15499" lon="6.64212">
        <ele>1470</ele>
        <time>2018-12-09T15:18:30Z</time>
      </trkpt>
      <trkpt lat="46.15472" lon="6.6434">
        <ele>1440</ele>
        <time>2018-12-09T15:19:30Z</time>
      </trkpt>
      <trkpt lat="46.15476" lon="6.64536">
        <ele>1402</ele>
        <time>2018-12-09T15:20:30Z</time>
      </trkpt>
      <trkpt lat="46.15771" lon="6.65024">
        <ele>1388</ele>
        <time>2018-12-09T15:21:30Z</time>
      </trkpt>
      <trkpt lat="46.15778" lon="6.65159">
        <ele>1371</ele>
        <time>2018-12-09T15:22:30Z</time>
      </trkpt>
      <trkpt lat="46.15844" lon="6.65215">
        <ele>1379</ele>
        <time>2018-12-09T15:23:30Z</time>
      </trkpt>
      <trkpt lat="46.15853" lon="6.6516">
        <ele>1391</ele>
        <time>2018-12-09T15:24:30Z</time>
      </trkpt>
      <trkpt lat="46.15869" lon="6.65194">
        <ele>1392</ele>
        <time>2018-12-09T15:25:30Z</time>
      </trkpt>
      <trkpt lat="46.1586" lon="6.65267">
        <ele>1380</ele>
        <time>2018-12-09T15:26:30Z</time>
      </trkpt>
      <trkpt lat="46.15851" lon="6.65351">
        <ele>1369</ele>
        <time>2018-12-09T15:27:30Z</time>
      </trkpt>
      <trkpt lat="46.15881" lon="6.65476">
        <ele>1376</ele>
        <time>2018-12-09T15:28:30Z</time>
      </trkpt>
      <trkpt lat="46.15816" lon="6.65506">
        <ele>1356</ele>
        <time>2018-12-09T15:29:30Z</time>
      </trkpt>
      <trkpt lat="46.15773" lon="6.6555">
        <ele>1348</ele>
        <time>2018-12-09T15:30:30Z</time>
      </trkpt>
      <trkpt lat="46.15759" lon="6.65644">
        <ele>1343</ele>
        <time>2018-12-09T15:31:30Z</time>
      </trkpt>
      <trkpt lat="46.15756" lon="6.6578">
        <ele>1331</ele>
        <time>2018-12-09T15:32:30Z</time>
      </trkpt>
      <trkpt lat="46.15941" lon="6.66024">
        <ele>1338</ele>
        <time>2018-12-09T15:33:30Z</time>
      </trkpt>
      <trkpt lat="46.16099" lon="6.6608">
        <ele>1362</ele>
        <time>2018-12-09T15:34:30Z</time>
      </trkpt>
      <trkpt lat="46.1616" lon="6.66077">
        <ele>1373</ele>
        <time>2018-12-09T15:35:30Z</time>
      </trkpt>
      <trkpt lat="46.1621" lon="6.66176">
        <ele>1357</ele>
        <time>2018-12-09T15:36:30Z</time>
      </trkpt>
      <trkpt lat="46.16193" lon="6.66267">
        <ele>1336</ele>
        <time>2018-12-09T15:37:30Z</time>
      </trkpt>
      <trkpt lat="46.16204" lon="6.66373">
        <ele>1318</ele>
        <time>2018-12-09T15:38:30Z</time>
      </trkpt>
      <trkpt lat="46.16166" lon="6.6648">
        <ele>1281</ele>
        <time>2018-12-09T15:39:30Z</time>
      </trkpt>
      <trkpt lat="46.16071" lon="6.66631">
        <ele>1215</ele>
        <time>2018-12-09T15:40:30Z</time>
      </trkpt>
      <trkpt lat="46.16141" lon="6.66853">
        <ele>1196</ele>
        <time>2018-12-09T15:41:30Z</time>
      </trkpt>
      <trkpt lat="46.16158" lon="6.66898">
        <ele>1191</ele>
        <time>2018-12-09T15:42:30Z</time>
      </trkpt>
      <trkpt lat="46.16117" lon="6.66928">
        <ele>1177</ele>
        <time>2018-12-09T15:43:30Z</time>
      </trkpt>
      <trkpt lat="46.16088" lon="6.66967">
        <ele>1168</ele>
        <time>2018-12-09T15:44:30Z</time>
      </trkpt>
      <trkpt lat="46.16016" lon="6.67057">
        <ele>1165</ele>
        <time>2018-12-09T15:45:30Z</time>
      </trkpt>
      <trkpt lat="46.15707" lon="6.66669">
        <ele>1165</ele>
        <time>2018-12-09T15:46:30Z</time>
      </trkpt>
      <trkpt lat="46.15647" lon="6.66744">
        <ele>1170</ele>
        <time>2018-12-09T15:47:30Z</time>
      </trkpt>
      <trkpt lat="46.15852" lon="6.66954">
        <ele>1168</ele>
        <time>2018-12-09T15:48:30Z</time>
      </trkpt>
    </trkseg>
  </trk>
</gpx>